Flight Track Log - Related Links

Times and Time Zones

All times are in EDT time to prevent confusion due to time zone crossing. See the EJA930 flight status page for this flight to view local times or setup timezone preferences in your user account.

Time Position Orientation Groundspeed Altitude Reporting Facility
EDT Latitude Longitude Course Direction KTS MPH feet Rate Location/Type
Thu 02:13:06 PM 39.2414 -106.8778 327° Northwest 171 197 43,000  Level Denver Center
Thu 02:14:08 PM 39.2861 -106.9158 327° Northwest 245 282 11,000 -14,613 Descending Denver Center
Thu 02:15:10 PM 39.2853 -107.0253 269° West 322 371 12,800 2,274 Climbing Denver Center
Thu 02:16:12 PM 39.3533 -107.1206 313° West 372 428 15,700 2,565 Climbing Denver Center
Thu 02:17:14 PM 39.4397 -107.2164 319° Northwest 387 445 18,100 2,323 Climbing Denver Center
Thu 02:18:16 PM 39.5331 -107.3217 319° Northwest 396 456 20,500 1,742 Climbing Denver Center
Thu 02:19:18 PM 39.6156 -107.4142 319° Northwest 404 465 21,700 1,258 Climbing Denver Center
Thu 02:20:20 PM 39.7147 -107.5239 320° Northwest 417 480 23,100 1,210 Climbing Denver Center
Thu 02:21:22 PM 39.7997 -107.6194 319° Northwest 423 487 24,200 1,306 Climbing Denver Center
Thu 02:22:24 PM 39.9011 -107.7347 319° Northwest 432 497 25,800 1,306 Climbing Denver Center
Thu 02:23:26 PM 39.9889 -107.8344 319° Northwest 437 503 26,900 1,113 Climbing Denver Center
Thu 02:24:28 PM 40.0992 -107.9478 322° Northwest 455 524 28,100 1,161 Climbing Denver Center
Thu 02:25:30 PM 40.1847 -108.0600 315° West 458 527 29,300 1,200 Climbing Denver Center
Thu 02:26:33 PM 40.2758 -108.2056 309° West 463 533 30,600 1,344 Climbing Denver Center
Thu 02:27:35 PM 40.3550 -108.3322 309° West 470 541 32,100 1,790 Climbing Denver Center
Thu 02:28:37 PM 40.4456 -108.4786 309° West 465 535 34,300 1,935 Climbing Denver Center
Thu 02:29:39 PM 40.5219 -108.6019 309° West 459 528 36,100 2,017 Climbing Denver Center
Thu 02:30:36 PM 40.6050 -108.7383 309° West 457 526 38,300 2,081 Climbing Salt Lake Center
Thu 02:31:43 PM 40.6864 -108.8708 309° West 454 522 40,400 1,581 Climbing Denver Center
Thu 02:32:45 PM 40.7686 -109.0061 309° West 450 518 41,700 1,161 Climbing Denver Center
Thu 02:33:47 PM 40.8581 -109.1525 309° West 457 526 42,800 629 Climbing Denver Center
Thu 02:34:49 PM 40.9339 -109.2789 308° West 456 525 43,000 97 Climbing Denver Center
Thu 02:35:51 PM 41.0097 -109.4056 308° West 456 525 43,000  Level Denver Center
Thu 02:36:53 PM 41.0981 -109.5508 309° West 450 518 43,000  Level Denver Center
Thu 02:37:50 PM 41.1728 -109.6758 308° West 452 520 43,000  Level Salt Lake Center
Thu 02:38:52 PM 41.2469 -109.8006 308° West 448 516 43,000  Level Salt Lake Center
Thu 02:39:54 PM 41.3333 -109.9461 308° West 448 516 43,000  Level Salt Lake Center
Thu 02:40:56 PM 41.4078 -110.0711 308° West 448 516 43,000  Level Salt Lake Center
Thu 02:41:58 PM 41.4936 -110.2161 308° West 446 513 43,000  Level Salt Lake Center
Thu 02:43:00 PM 41.5658 -110.3414 308° West 444 511 43,000  Level Salt Lake Center
Thu 02:44:02 PM 41.6394 -110.4667 308° West 447 514 43,000  Level Salt Lake Center
Thu 02:45:04 PM 41.7258 -110.6139 308° West 450 518 43,000  Level Salt Lake Center
Thu 02:46:06 PM 41.7992 -110.7397 308° West 448 516 43,000  Level Salt Lake Center
Thu 02:47:08 PM 41.8842 -110.8886 308° West 450 518 43,000  Level Salt Lake Center
Thu 02:48:10 PM 41.9650 -111.0300 308° West 448 516 43,000  Level Salt Lake Center
Thu 02:49:12 PM 42.0408 -111.1617 308° West 449 517 43,000  Level Salt Lake Center
Thu 02:50:14 PM 42.1147 -111.2944 307° West 447 514 43,000  Level Salt Lake Center
Thu 02:51:16 PM 42.1897 -111.4264 308° West 446 513 43,000  Level Salt Lake Center
Thu 02:52:18 PM 42.2639 -111.5586 307° West 445 512 43,000  Level Salt Lake Center
Thu 02:53:21 PM 42.3539 -111.7169 308° West 446 513 43,000  Level Salt Lake Center
Thu 02:54:23 PM 42.4275 -111.8494 307° West 444 511 43,000  Level Salt Lake Center
Thu 02:55:25 PM 42.5014 -111.9842 307° West 447 514 43,000  Level Salt Lake Center
Thu 02:56:27 PM 42.5758 -112.1169 307° West 445 512 43,000  Level Salt Lake Center
Thu 02:57:29 PM 42.6506 -112.2517 307° West 447 514 43,000  Level Salt Lake Center
Thu 02:58:31 PM 42.7275 -112.3922 307° West 445 512 43,000  Level Salt Lake Center
Thu 02:59:33 PM 42.8106 -112.5456 306° West 447 514 43,000  Level Salt Lake Center
Thu 03:00:35 PM 42.8831 -112.6764 307° West 450 518 43,000  Level Salt Lake Center
Thu 03:01:37 PM 42.9672 -112.8333 306° West 457 526 43,000  Level Salt Lake Center
Thu 03:02:39 PM 43.0400 -112.9678 307° West 460 529 43,000  Level Salt Lake Center
Thu 03:03:41 PM 43.1250 -113.1272 306° West 461 531 43,000  Level Salt Lake Center
Thu 03:04:43 PM 43.1992 -113.2672 306° West 470 541 43,000  Level Salt Lake Center
Thu 03:05:45 PM 43.2847 -113.4294 306° West 470 541 43,000  Level Salt Lake Center
Thu 03:06:47 PM 43.3578 -113.5669 306° West 465 535 43,000  Level Salt Lake Center
Thu 03:07:49 PM 43.4314 -113.7056 306° West 468 539 43,000  Level Salt Lake Center
Thu 03:08:51 PM 43.5158 -113.8711 305° West 474 545 43,000  Level Salt Lake Center
Thu 03:09:53 PM 43.5914 -114.0167 306° West 464 534 43,000  Level Salt Lake Center
Thu 03:10:55 PM 43.6636 -114.1564 306° West 467 537 43,000  Level Salt Lake Center
Thu 03:11:57 PM 43.7469 -114.3183 306° West 463 533 43,000  Level Salt Lake Center
Thu 03:12:59 PM 43.8167 -114.4567 305° West 459 528 43,000  Level Salt Lake Center
Thu 03:14:01 PM 43.8992 -114.6186 305° West 460 529 43,000  Level Salt Lake Center
Thu 03:15:03 PM 43.9700 -114.7575 305° West 460 529 43,000  Level Salt Lake Center
Thu 03:16:05 PM 44.0528 -114.9181 306° West 459 528 43,000  Level Salt Lake Center
Thu 03:17:07 PM 44.1203 -115.0583 304° West 458 527 43,000  Level Salt Lake Center
Thu 03:18:09 PM 44.2014 -115.2203 305° West 455 524 43,000  Level Salt Lake Center
Thu 03:19:11 PM 44.2708 -115.3581 305° West 455 524 43,000  Level Salt Lake Center
Thu 03:20:13 PM 44.3508 -115.5197 305° West 455 524 43,000  Level Salt Lake Center
Thu 03:21:15 PM 44.4189 -115.6592 304° West 454 522 43,000  Level Salt Lake Center
Thu 03:22:18 PM 44.4983 -115.8217 304° West 455 524 43,000  Level Salt Lake Center
Thu 03:23:20 PM 44.5661 -115.9600 305° West 456 525 43,000  Level Salt Lake Center
Thu 03:24:22 PM 44.6431 -116.1228 304° West 456 525 43,000  Level Salt Lake Center
Thu 03:25:24 PM 44.7094 -116.2614 304° West 451 519 43,000  Level Salt Lake Center
Thu 03:26:26 PM 44.7861 -116.4247 304° West 449 517 43,000  Level Salt Lake Center
Thu 03:27:28 PM 44.8525 -116.5653 304° West 451 519 43,000  Level Salt Lake Center
Thu 03:28:30 PM 44.9300 -116.7289 304° West 449 517 43,000  Level Salt Lake Center
Thu 03:29:32 PM 44.9967 -116.8700 304° West 452 520 43,000  Level Salt Lake Center
Thu 03:30:35 PM 45.0736 -117.0369 303° West 452 520 43,000  Level Seattle Center
Thu 03:31:37 PM 45.1411 -117.1800 304° West 455 524 43,000  Level Seattle Center
Thu 03:32:38 PM 45.2172 -117.3475 303° West 453 521 43,000  Level Seattle Center
Thu 03:33:39 PM 45.2850 -117.4911 304° West 455 524 43,000  Level Seattle Center
Thu 03:34:41 PM 45.3539 -117.6428 303° West 458 527 43,000  Level Seattle Center
Thu 03:35:42 PM 45.4222 -117.7931 303° West 455 524 43,000  Level Seattle Center
Thu 03:36:43 PM 45.4897 -117.9428 303° West 452 520 43,000  Level Seattle Center
Thu 03:37:45 PM 45.5569 -118.0919 303° West 450 518 43,000  Level Seattle Center
Thu 03:38:46 PM 45.6242 -118.2417 303° West 450 518 43,000  Level Seattle Center
Thu 03:39:47 PM 45.6950 -118.4011 302° West 448 516 43,000  Level Seattle Center
Thu 03:40:48 PM 45.7692 -118.5714 302° West 448 516 43,000  Level Seattle Center
Thu 03:41:50 PM 45.8358 -118.7211 303° West 448 516 43,000  Level Seattle Center
Thu 03:42:51 PM 45.9014 -118.8714 302° West 449 517 43,000  Level Seattle Center
Thu 03:43:52 PM 45.9667 -119.0219 302° West 447 514 43,000  Level Seattle Center
Thu 03:44:53 PM 46.0336 -119.1756 302° West 446 513 43,000  Level Seattle Center
Thu 03:45:55 PM 46.0967 -119.3242 302° West 448 516 43,000  Level Seattle Center
Thu 03:46:56 PM 46.1608 -119.4742 302° West 445 512 43,000  Level Seattle Center
Thu 03:47:57 PM 46.2394 -119.6575 302° West 448 516 43,000  Level Seattle Center
Thu 03:48:58 PM 46.3033 -119.8097 301° West 449 517 43,000  Level Seattle Center
Thu 03:50:00 PM 46.3694 -119.9639 302° West 452 520 43,000  Level Seattle Center
Thu 03:51:01 PM 46.4333 -120.1194 301° West 451 519 43,000 -885 Level Seattle Center
Thu 03:52:02 PM 46.4992 -120.2772 301° West 457 526 41,200 -1,869 Descending Seattle Center
Thu 03:53:03 PM 46.5667 -120.4394 301° West 467 537 39,200 -2,049 Descending Seattle Center
Thu 03:54:05 PM 46.6397 -120.5956 304° West 468 539 37,000 -2,439 Descending Seattle Center
Thu 03:55:06 PM 46.7147 -120.7519 305° West 473 544 34,200 -2,754 Descending Seattle Center
Thu 03:56:07 PM 46.7911 -120.9136 305° West 486 559 31,400 -2,951 Descending Seattle Center
Thu 03:57:08 PM 46.8836 -121.1103 305° West 491 565 28,200 -2,829 Descending Seattle Center
Thu 03:58:10 PM 46.9603 -121.2725 305° West 488 562 25,600 -2,647 Descending Seattle Center
Thu 03:58:50 PM 47.0153 -121.3872 305° West 478 550 23,700 -2,675 Descending Seattle Center
Thu 03:59:33 PM 47.0644 -121.4967 303° West 459 528 21,900 -2,286 Descending Seattle Center
Thu 04:00:14 PM 47.1000 -121.5742 304° West 461 531 20,500 -2,529 Descending Seattle Center
Thu 04:01:15 PM 47.1825 -121.7542 304° West 458 527 17,600 -2,951 Descending Seattle Center
Thu 04:02:16 PM 47.2486 -121.8975 304° West 418 481 14,500 -3,197 Descending Seattle Center
Thu 04:03:17 PM 47.3108 -122.0328 304° West 399 459 11,100 -1,707 Descending Seattle Center
Thu 04:04:19 PM 47.3631 -122.1489 304° West 303 349 11,000 -49 Descending Seattle Center
Thu 04:05:20 PM 47.4003 -122.2578 297° West 297 342 11,000 -344 Level Seattle Center
Thu 04:06:21 PM 47.4344 -122.3669 295° West 289 333 10,300 -984 Descending Seattle Center
Thu 04:07:22 PM 47.4683 -122.4719 296° West 283 326 9,000 -1,586 Descending Seattle Center
Thu 04:08:41 PM 47.5528 -122.5475 329° Northwest 274 315 6,600 -2,164 Descending Seattle Center
Thu 04:09:24 PM 47.5989 -122.5772 337° Northwest 269 310 4,600 -1,829 Descending Seattle Center
Thu 04:10:26 PM 47.6661 -122.6047 345° North 238 274 3,400 -1,171 Descending Seattle Center
Thu 04:11:27 PM 47.7022 -122.5311 54° Northeast 219 252 2,200 -590 Descending Seattle Center
Thu 04:12:28 PM 47.6972 -122.4558 96° East 200 230 2,200  Level Seattle Center
Thu 04:13:29 PM 47.6547 -122.4094 144° Southeast 198 228 2,200 -246 Level Seattle Center
Thu 04:14:30 PM 47.6114 -122.3725 150° Southeast 168 193 1,700 -634 Descending Seattle Center
Thu 04:15:32 PM 47.5742 -122.3411 150° Southeast 156 180 900 -780 Descending Seattle Center
Thu 04:16:33 PM 47.5406 -122.3117 149° Southeast 143 165 100 -787 Descending Seattle Center

Login

Don't have an account? Register now (free) for customized features, flight alerts, and more!